sensor_id;sensor_type;location;lat;lon;timestamp;P1;durP1;ratioP1;P2;durP2;ratioP2
32637;SDS011;19045;52.268;10.506;2023-05-24T00:01:15;21.95;;;4.68;;
32637;SDS011;19045;52.268;10.506;2023-05-24T00:03:49;19.92;;;4.72;;
32637;SDS011;19045;52.268;10.506;2023-05-24T00:06:16;19.10;;;4.60;;
32637;SDS011;19045;52.268;10.506;2023-05-24T00:08:43;31.15;;;5.03;;
32637;SDS011;19045;52.268;10.506;2023-05-24T00:11:10;17.42;;;4.07;;
32637;SDS011;19045;52.268;10.506;2023-05-24T00:13:38;23.73;;;4.80;;
32637;SDS011;19045;52.268;10.506;2023-05-24T00:16:04;18.02;;;3.47;;
32637;SDS011;19045;52.268;10.506;2023-05-24T00:18:31;28.02;;;4.57;;
32637;SDS011;19045;52.268;10.506;2023-05-24T00:20:57;25.25;;;4.40;;
32637;SDS011;19045;52.268;10.506;2023-05-24T00:23:24;26.15;;;5.32;;
32637;SDS011;19045;52.268;10.506;2023-05-24T00:25:51;21.30;;;4.05;;
32637;SDS011;19045;52.268;10.506;2023-05-24T00:28:18;20.15;;;3.92;;
32637;SDS011;19045;52.268;10.506;2023-05-24T00:30:46;21.30;;;4.40;;
32637;SDS011;19045;52.268;10.506;2023-05-24T00:33:15;27.48;;;5.28;;
32637;SDS011;19045;52.268;10.506;2023-05-24T00:35:41;21.88;;;4.45;;
32637;SDS011;19045;52.268;10.506;2023-05-24T00:38:08;25.10;;;5.30;;
32637;SDS011;19045;52.268;10.506;2023-05-24T00:40:34;29.25;;;5.63;;
32637;SDS011;19045;52.268;10.506;2023-05-24T00:43:01;25.63;;;4.60;;
32637;SDS011;19045;52.268;10.506;2023-05-24T00:45:28;20.70;;;5.43;;
32637;SDS011;19045;52.268;10.506;2023-05-24T00:47:56;27.00;;;5.43;;
32637;SDS011;19045;52.268;10.506;2023-05-24T00:50:23;20.48;;;4.78;;
32637;SDS011;19045;52.268;10.506;2023-05-24T00:52:50;18.30;;;4.30;;
32637;SDS011;19045;52.268;10.506;2023-05-24T00:55:17;13.20;;;3.88;;
32637;SDS011;19045;52.268;10.506;2023-05-24T00:57:44;28.13;;;4.65;;
32637;SDS011;19045;52.268;10.506;2023-05-24T01:00:11;25.15;;;4.43;;
32637;SDS011;19045;52.268;10.506;2023-05-24T01:02:38;29.52;;;5.30;;
32637;SDS011;19045;52.268;10.506;2023-05-24T01:05:07;22.95;;;5.03;;
32637;SDS011;19045;52.268;10.506;2023-05-24T01:07:39;20.30;;;4.93;;
32637;SDS011;19045;52.268;10.506;2023-05-24T01:10:18;23.50;;;5.35;;
32637;SDS011;19045;52.268;10.506;2023-05-24T01:12:58;25.15;;;5.95;;
32637;SDS011;19045;52.268;10.506;2023-05-24T01:18:00;30.98;;;5.10;;
32637;SDS011;19045;52.268;10.506;2023-05-24T01:20:33;22.80;;;5.35;;
32637;SDS011;19045;52.268;10.506;2023-05-24T01:28:30;23.75;;;5.50;;
32637;SDS011;19045;52.268;10.506;2023-05-24T01:30:58;31.48;;;5.78;;
32637;SDS011;19045;52.268;10.506;2023-05-24T01:33:25;29.88;;;5.63;;
32637;SDS011;19045;52.268;10.506;2023-05-24T01:35:52;35.00;;;5.15;;
32637;SDS011;19045;52.268;10.506;2023-05-24T01:38:19;28.02;;;5.68;;
32637;SDS011;19045;52.268;10.506;2023-05-24T01:40:46;27.40;;;6.15;;
32637;SDS011;19045;52.268;10.506;2023-05-24T01:43:17;19.95;;;5.15;;
32637;SDS011;19045;52.268;10.506;2023-05-24T01:46:00;20.27;;;4.38;;
32637;SDS011;19045;52.268;10.506;2023-05-24T01:48:33;27.27;;;5.45;;
32637;SDS011;19045;52.268;10.506;2023-05-24T01:51:06;24.25;;;5.32;;
32637;SDS011;19045;52.268;10.506;2023-05-24T01:53:38;23.73;;;5.93;;
32637;SDS011;19045;52.268;10.506;2023-05-24T01:56:06;30.40;;;5.43;;
32637;SDS011;19045;52.268;10.506;2023-05-24T01:58:45;21.02;;;4.60;;
32637;SDS011;19045;52.268;10.506;2023-05-24T02:01:26;27.75;;;6.40;;
32637;SDS011;19045;52.268;10.506;2023-05-24T02:06:20;25.30;;;4.97;;
32637;SDS011;19045;52.268;10.506;2023-05-24T02:08:56;20.42;;;4.80;;
32637;SDS011;19045;52.268;10.506;2023-05-24T02:11:25;26.77;;;5.05;;
32637;SDS011;19045;52.268;10.506;2023-05-24T02:13:52;22.73;;;4.45;;
32637;SDS011;19045;52.268;10.506;2023-05-24T02:16:18;25.45;;;5.57;;
32637;SDS011;19045;52.268;10.506;2023-05-24T02:18:49;26.98;;;5.45;;
32637;SDS011;19045;52.268;10.506;2023-05-24T02:21:15;23.58;;;5.57;;
32637;SDS011;19045;52.268;10.506;2023-05-24T02:23:42;21.42;;;4.95;;
32637;SDS011;19045;52.268;10.506;2023-05-24T02:26:08;25.73;;;5.03;;
32637;SDS011;19045;52.268;10.506;2023-05-24T02:28:37;21.23;;;5.70;;
32637;SDS011;19045;52.268;10.506;2023-05-24T02:31:04;14.18;;;5.28;;
32637;SDS011;19045;52.268;10.506;2023-05-24T02:33:31;29.73;;;5.95;;
32637;SDS011;19045;52.268;10.506;2023-05-24T02:35:59;29.10;;;5.57;;
32637;SDS011;19045;52.268;10.506;2023-05-24T02:38:25;24.83;;;5.45;;
32637;SDS011;19045;52.268;10.506;2023-05-24T02:40:52;25.98;;;5.75;;
32637;SDS011;19045;52.268;10.506;2023-05-24T02:43:18;28.77;;;6.25;;
32637;SDS011;19045;52.268;10.506;2023-05-24T02:45:45;21.33;;;5.22;;
32637;SDS011;19045;52.268;10.506;2023-05-24T02:48:12;21.80;;;5.18;;
32637;SDS011;19045;52.268;10.506;2023-05-24T02:50:38;35.70;;;7.38;;
32637;SDS011;19045;52.268;10.506;2023-05-24T02:53:06;28.42;;;5.38;;
32637;SDS011;19045;52.268;10.506;2023-05-24T02:55:33;25.42;;;5.88;;
32637;SDS011;19045;52.268;10.506;2023-05-24T02:58:00;31.77;;;6.10;;
32637;SDS011;19045;52.268;10.506;2023-05-24T03:00:26;24.20;;;5.40;;
32637;SDS011;19045;52.268;10.506;2023-05-24T03:02:53;21.65;;;4.82;;
32637;SDS011;19045;52.268;10.506;2023-05-24T03:05:21;25.27;;;5.68;;
32637;SDS011;19045;52.268;10.506;2023-05-24T03:07:48;22.08;;;5.30;;
32637;SDS011;19045;52.268;10.506;2023-05-24T03:10:16;27.20;;;6.63;;
32637;SDS011;19045;52.268;10.506;2023-05-24T03:12:43;28.50;;;6.03;;
32637;SDS011;19045;52.268;10.506;2023-05-24T03:15:09;29.50;;;6.88;;
32637;SDS011;19045;52.268;10.506;2023-05-24T03:17:36;24.15;;;6.15;;
32637;SDS011;19045;52.268;10.506;2023-05-24T03:22:52;27.00;;;6.22;;
32637;SDS011;19045;52.268;10.506;2023-05-24T03:25:20;27.85;;;6.38;;
32637;SDS011;19045;52.268;10.506;2023-05-24T03:27:46;26.23;;;6.78;;
32637;SDS011;19045;52.268;10.506;2023-05-24T03:30:13;25.52;;;5.80;;
32637;SDS011;19045;52.268;10.506;2023-05-24T03:32:40;22.45;;;5.80;;
32637;SDS011;19045;52.268;10.506;2023-05-24T03:35:07;22.55;;;5.97;;
32637;SDS011;19045;52.268;10.506;2023-05-24T03:37:36;29.42;;;7.05;;
32637;SDS011;19045;52.268;10.506;2023-05-24T03:40:02;25.75;;;5.95;;
32637;SDS011;19045;52.268;10.506;2023-05-24T03:42:32;30.85;;;7.00;;
32637;SDS011;19045;52.268;10.506;2023-05-24T03:44:58;33.05;;;6.85;;
32637;SDS011;19045;52.268;10.506;2023-05-24T03:47:25;31.27;;;6.28;;
32637;SDS011;19045;52.268;10.506;2023-05-24T03:49:51;33.92;;;7.13;;
32637;SDS011;19045;52.268;10.506;2023-05-24T03:52:18;30.25;;;6.22;;
32637;SDS011;19045;52.268;10.506;2023-05-24T03:54:45;34.70;;;6.38;;
32637;SDS011;19045;52.268;10.506;2023-05-24T03:57:12;31.00;;;6.90;;
32637;SDS011;19045;52.268;10.506;2023-05-24T03:59:40;29.85;;;7.03;;
32637;SDS011;19045;52.268;10.506;2023-05-24T04:02:06;34.92;;;7.07;;
32637;SDS011;19045;52.268;10.506;2023-05-24T04:04:33;33.55;;;7.82;;
32637;SDS011;19045;52.268;10.506;2023-05-24T04:07:01;33.92;;;7.20;;
32637;SDS011;19045;52.268;10.506;2023-05-24T04:09:27;27.15;;;6.28;;
32637;SDS011;19045;52.268;10.506;2023-05-24T04:11:54;30.80;;;6.88;;
32637;SDS011;19045;52.268;10.506;2023-05-24T04:14:21;37.33;;;7.18;;
32637;SDS011;19045;52.268;10.506;2023-05-24T04:16:49;41.70;;;8.23;;
32637;SDS011;19045;52.268;10.506;2023-05-24T04:19:15;37.38;;;7.00;;
32637;SDS011;19045;52.268;10.506;2023-05-24T04:21:42;27.67;;;6.50;;
32637;SDS011;19045;52.268;10.506;2023-05-24T04:24:09;28.10;;;6.70;;
32637;SDS011;19045;52.268;10.506;2023-05-24T04:26:36;33.92;;;7.80;;
32637;SDS011;19045;52.268;10.506;2023-05-24T04:29:03;36.20;;;6.15;;
32637;SDS011;19045;52.268;10.506;2023-05-24T04:31:31;24.63;;;6.72;;
32637;SDS011;19045;52.268;10.506;2023-05-24T04:33:59;34.88;;;7.53;;
32637;SDS011;19045;52.268;10.506;2023-05-24T04:36:26;31.33;;;7.47;;
32637;SDS011;19045;52.268;10.506;2023-05-24T04:38:55;31.70;;;7.50;;
32637;SDS011;19045;52.268;10.506;2023-05-24T04:41:26;34.37;;;7.50;;
32637;SDS011;19045;52.268;10.506;2023-05-24T04:43:58;39.42;;;7.55;;
32637;SDS011;19045;52.268;10.506;2023-05-24T04:46:25;28.67;;;7.38;;
32637;SDS011;19045;52.268;10.506;2023-05-24T04:48:52;26.35;;;6.40;;
32637;SDS011;19045;52.268;10.506;2023-05-24T04:51:21;39.45;;;8.00;;
32637;SDS011;19045;52.268;10.506;2023-05-24T04:53:48;33.50;;;7.20;;
32637;SDS011;19045;52.268;10.506;2023-05-24T04:56:14;31.20;;;7.75;;
32637;SDS011;19045;52.268;10.506;2023-05-24T04:58:41;39.95;;;7.30;;
32637;SDS011;19045;52.268;10.506;2023-05-24T05:01:08;28.20;;;6.90;;
32637;SDS011;19045;52.268;10.506;2023-05-24T05:03:34;39.90;;;7.45;;
32637;SDS011;19045;52.268;10.506;2023-05-24T05:06:01;29.70;;;6.95;;
32637;SDS011;19045;52.268;10.506;2023-05-24T05:08:29;36.25;;;7.90;;
32637;SDS011;19045;52.268;10.506;2023-05-24T05:10:56;41.05;;;8.23;;
32637;SDS011;19045;52.268;10.506;2023-05-24T05:13:23;35.03;;;7.70;;
32637;SDS011;19045;52.268;10.506;2023-05-24T05:15:49;33.92;;;8.10;;
32637;SDS011;19045;52.268;10.506;2023-05-24T05:18:16;28.90;;;7.60;;
32637;SDS011;19045;52.268;10.506;2023-05-24T05:20:43;35.97;;;7.90;;
32637;SDS011;19045;52.268;10.506;2023-05-24T05:23:10;34.15;;;8.85;;
32637;SDS011;19045;52.268;10.506;2023-05-24T05:25:39;33.08;;;8.45;;
32637;SDS011;19045;52.268;10.506;2023-05-24T05:28:05;33.75;;;7.10;;
32637;SDS011;19045;52.268;10.506;2023-05-24T05:30:32;33.97;;;8.45;;
32637;SDS011;19045;52.268;10.506;2023-05-24T05:32:59;39.80;;;7.18;;
32637;SDS011;19045;52.268;10.506;2023-05-24T05:35:26;34.47;;;6.90;;
32637;SDS011;19045;52.268;10.506;2023-05-24T05:37:54;24.88;;;6.50;;
32637;SDS011;19045;52.268;10.506;2023-05-24T05:40:21;34.08;;;6.88;;
32637;SDS011;19045;52.268;10.506;2023-05-24T05:42:49;38.70;;;7.45;;
32637;SDS011;19045;52.268;10.506;2023-05-24T05:45:15;34.35;;;7.85;;
32637;SDS011;19045;52.268;10.506;2023-05-24T05:47:42;34.47;;;6.72;;
32637;SDS011;19045;52.268;10.506;2023-05-24T05:50:09;23.77;;;5.97;;
32637;SDS011;19045;52.268;10.506;2023-05-24T05:52:36;31.45;;;7.13;;
32637;SDS011;19045;52.268;10.506;2023-05-24T05:55:03;32.03;;;7.13;;
32637;SDS011;19045;52.268;10.506;2023-05-24T05:57:30;33.47;;;8.52;;
32637;SDS011;19045;52.268;10.506;2023-05-24T06:00:00;35.97;;;6.88;;
32637;SDS011;19045;52.268;10.506;2023-05-24T06:02:27;37.75;;;8.18;;
32637;SDS011;19045;52.268;10.506;2023-05-24T06:04:54;40.13;;;7.45;;
32637;SDS011;19045;52.268;10.506;2023-05-24T06:07:21;34.53;;;7.30;;
32637;SDS011;19045;52.268;10.506;2023-05-24T06:09:48;30.38;;;8.27;;
32637;SDS011;19045;52.268;10.506;2023-05-24T06:12:15;33.05;;;7.60;;
32637;SDS011;19045;52.268;10.506;2023-05-24T06:14:41;36.65;;;7.18;;
32637;SDS011;19045;52.268;10.506;2023-05-24T06:17:09;28.73;;;6.82;;
32637;SDS011;19045;52.268;10.506;2023-05-24T06:19:36;36.22;;;8.23;;
32637;SDS011;19045;52.268;10.506;2023-05-24T06:22:03;29.20;;;8.27;;
32637;SDS011;19045;52.268;10.506;2023-05-24T06:24:29;38.10;;;8.48;;
32637;SDS011;19045;52.268;10.506;2023-05-24T06:26:58;35.97;;;8.30;;
32637;SDS011;19045;52.268;10.506;2023-05-24T06:29:25;39.92;;;10.63;;
32637;SDS011;19045;52.268;10.506;2023-05-24T06:31:52;32.33;;;6.93;;
32637;SDS011;19045;52.268;10.506;2023-05-24T06:34:22;25.17;;;6.70;;
32637;SDS011;19045;52.268;10.506;2023-05-24T06:36:48;33.17;;;8.02;;
32637;SDS011;19045;52.268;10.506;2023-05-24T06:39:17;37.40;;;8.25;;
32637;SDS011;19045;52.268;10.506;2023-05-24T06:41:44;34.08;;;7.95;;
32637;SDS011;19045;52.268;10.506;2023-05-24T06:44:11;36.55;;;7.85;;
32637;SDS011;19045;52.268;10.506;2023-05-24T06:46:38;31.88;;;8.63;;
32637;SDS011;19045;52.268;10.506;2023-05-24T06:49:04;34.33;;;7.30;;
32637;SDS011;19045;52.268;10.506;2023-05-24T06:51:32;34.95;;;6.82;;
32637;SDS011;19045;52.268;10.506;2023-05-24T06:54:00;28.27;;;6.65;;
32637;SDS011;19045;52.268;10.506;2023-05-24T06:56:27;35.13;;;7.97;;
32637;SDS011;19045;52.268;10.506;2023-05-24T06:59:00;35.78;;;7.25;;
32637;SDS011;19045;52.268;10.506;2023-05-24T07:01:26;34.30;;;7.45;;
32637;SDS011;19045;52.268;10.506;2023-05-24T07:03:53;29.85;;;6.85;;
32637;SDS011;19045;52.268;10.506;2023-05-24T07:06:20;35.70;;;6.82;;
32637;SDS011;19045;52.268;10.506;2023-05-24T07:08:48;32.35;;;6.65;;
32637;SDS011;19045;52.268;10.506;2023-05-24T07:11:15;35.70;;;6.68;;
32637;SDS011;19045;52.268;10.506;2023-05-24T07:13:42;27.70;;;6.65;;
32637;SDS011;19045;52.268;10.506;2023-05-24T07:16:08;25.65;;;6.47;;
32637;SDS011;19045;52.268;10.506;2023-05-24T07:18:35;30.65;;;5.70;;
32637;SDS011;19045;52.268;10.506;2023-05-24T07:21:02;23.13;;;5.45;;
32637;SDS011;19045;52.268;10.506;2023-05-24T07:23:29;27.40;;;6.50;;
32637;SDS011;19045;52.268;10.506;2023-05-24T07:25:57;23.83;;;5.90;;
32637;SDS011;19045;52.268;10.506;2023-05-24T07:28:27;25.83;;;5.70;;
32637;SDS011;19045;52.268;10.506;2023-05-24T07:30:53;33.90;;;7.00;;
32637;SDS011;19045;52.268;10.506;2023-05-24T07:33:20;35.20;;;5.93;;
32637;SDS011;19045;52.268;10.506;2023-05-24T07:35:47;31.00;;;6.93;;
32637;SDS011;19045;52.268;10.506;2023-05-24T07:38:15;25.45;;;5.72;;
32637;SDS011;19045;52.268;10.506;2023-05-24T07:40:42;27.10;;;5.57;;
32637;SDS011;19045;52.268;10.506;2023-05-24T07:43:10;28.15;;;5.95;;
32637;SDS011;19045;52.268;10.506;2023-05-24T07:45:37;23.98;;;5.55;;
32637;SDS011;19045;52.268;10.506;2023-05-24T07:48:03;24.67;;;5.60;;
32637;SDS011;19045;52.268;10.506;2023-05-24T07:50:30;28.63;;;5.55;;
32637;SDS011;19045;52.268;10.506;2023-05-24T07:52:57;25.27;;;5.22;;
32637;SDS011;19045;52.268;10.506;2023-05-24T07:55:23;36.88;;;5.65;;
32637;SDS011;19045;52.268;10.506;2023-05-24T07:57:51;23.75;;;5.70;;
32637;SDS011;19045;52.268;10.506;2023-05-24T08:00:20;27.30;;;5.85;;
32637;SDS011;19045;52.268;10.506;2023-05-24T08:02:47;20.35;;;4.97;;
32637;SDS011;19045;52.268;10.506;2023-05-24T08:05:14;22.42;;;4.93;;
32637;SDS011;19045;52.268;10.506;2023-05-24T08:07:41;19.38;;;4.82;;
32637;SDS011;19045;52.268;10.506;2023-05-24T08:10:08;20.27;;;4.85;;
32637;SDS011;19045;52.268;10.506;2023-05-24T08:12:36;22.95;;;5.32;;
32637;SDS011;19045;52.268;10.506;2023-05-24T08:15:03;23.27;;;5.13;;
32637;SDS011;19045;52.268;10.506;2023-05-24T08:17:32;20.63;;;4.45;;
32637;SDS011;19045;52.268;10.506;2023-05-24T08:19:59;21.13;;;4.30;;
32637;SDS011;19045;52.268;10.506;2023-05-24T08:22:26;12.63;;;4.68;;
32637;SDS011;19045;52.268;10.506;2023-05-24T08:24:52;19.85;;;4.78;;
32637;SDS011;19045;52.268;10.506;2023-05-24T08:27:19;25.48;;;5.68;;
32637;SDS011;19045;52.268;10.506;2023-05-24T08:29:46;24.35;;;5.38;;
32637;SDS011;19045;52.268;10.506;2023-05-24T08:32:13;20.08;;;5.03;;
32637;SDS011;19045;52.268;10.506;2023-05-24T08:34:41;26.27;;;5.00;;
32637;SDS011;19045;52.268;10.506;2023-05-24T08:37:08;20.98;;;5.15;;
32637;SDS011;19045;52.268;10.506;2023-05-24T08:39:35;19.83;;;4.70;;
32637;SDS011;19045;52.268;10.506;2023-05-24T08:42:01;19.65;;;4.78;;
32637;SDS011;19045;52.268;10.506;2023-05-24T08:44:30;18.10;;;5.05;;
32637;SDS011;19045;52.268;10.506;2023-05-24T08:47:00;21.63;;;4.82;;
32637;SDS011;19045;52.268;10.506;2023-05-24T08:49:27;23.20;;;6.65;;
32637;SDS011;19045;52.268;10.506;2023-05-24T08:51:59;24.55;;;5.82;;
32637;SDS011;19045;52.268;10.506;2023-05-24T08:54:26;17.15;;;4.80;;
32637;SDS011;19045;52.268;10.506;2023-05-24T08:56:55;17.23;;;5.03;;
32637;SDS011;19045;52.268;10.506;2023-05-24T08:59:22;14.05;;;3.78;;
32637;SDS011;19045;52.268;10.506;2023-05-24T09:01:51;25.33;;;5.18;;
32637;SDS011;19045;52.268;10.506;2023-05-24T09:04:19;17.83;;;4.63;;
32637;SDS011;19045;52.268;10.506;2023-05-24T09:06:47;22.77;;;5.85;;
32637;SDS011;19045;52.268;10.506;2023-05-24T09:09:15;14.82;;;4.45;;
32637;SDS011;19045;52.268;10.506;2023-05-24T09:11:43;24.50;;;4.80;;
32637;SDS011;19045;52.268;10.506;2023-05-24T09:14:12;17.92;;;4.32;;
32637;SDS011;19045;52.268;10.506;2023-05-24T09:16:39;21.35;;;4.72;;
32637;SDS011;19045;52.268;10.506;2023-05-24T09:19:06;22.85;;;5.65;;
32637;SDS011;19045;52.268;10.506;2023-05-24T09:21:34;25.55;;;5.65;;
32637;SDS011;19045;52.268;10.506;2023-05-24T09:24:02;32.28;;;5.55;;
32637;SDS011;19045;52.268;10.506;2023-05-24T09:26:35;23.05;;;4.57;;
32637;SDS011;19045;52.268;10.506;2023-05-24T09:29:05;24.15;;;5.07;;
32637;SDS011;19045;52.268;10.506;2023-05-24T09:31:32;23.95;;;5.10;;
32637;SDS011;19045;52.268;10.506;2023-05-24T09:33:59;25.23;;;5.32;;
32637;SDS011;19045;52.268;10.506;2023-05-24T09:36:26;18.13;;;4.45;;
32637;SDS011;19045;52.268;10.506;2023-05-24T09:39:01;16.33;;;4.20;;
32637;SDS011;19045;52.268;10.506;2023-05-24T09:41:33;17.20;;;3.70;;
32637;SDS011;19045;52.268;10.506;2023-05-24T09:44:01;19.55;;;4.53;;
32637;SDS011;19045;52.268;10.506;2023-05-24T09:46:28;14.40;;;3.75;;
32637;SDS011;19045;52.268;10.506;2023-05-24T09:49:00;15.77;;;4.07;;
32637;SDS011;19045;52.268;10.506;2023-05-24T09:51:30;17.02;;;4.43;;
32637;SDS011;19045;52.268;10.506;2023-05-24T09:53:57;16.70;;;3.95;;
32637;SDS011;19045;52.268;10.506;2023-05-24T09:56:27;16.60;;;4.80;;
32637;SDS011;19045;52.268;10.506;2023-05-24T09:58:54;17.48;;;3.25;;
32637;SDS011;19045;52.268;10.506;2023-05-24T10:01:23;16.75;;;3.20;;
32637;SDS011;19045;52.268;10.506;2023-05-24T10:03:51;16.63;;;3.55;;
32637;SDS011;19045;52.268;10.506;2023-05-24T10:06:19;13.13;;;3.67;;
32637;SDS011;19045;52.268;10.506;2023-05-24T10:08:46;13.18;;;2.92;;
32637;SDS011;19045;52.268;10.506;2023-05-24T10:11:14;13.02;;;3.83;;
32637;SDS011;19045;52.268;10.506;2023-05-24T10:13:41;14.18;;;3.95;;
32637;SDS011;19045;52.268;10.506;2023-05-24T10:16:08;13.32;;;3.67;;
32637;SDS011;19045;52.268;10.506;2023-05-24T10:18:37;18.20;;;4.22;;
32637;SDS011;19045;52.268;10.506;2023-05-24T10:21:04;16.17;;;4.57;;
32637;SDS011;19045;52.268;10.506;2023-05-24T10:23:35;17.48;;;4.07;;
32637;SDS011;19045;52.268;10.506;2023-05-24T10:26:03;14.68;;;3.65;;
32637;SDS011;19045;52.268;10.506;2023-05-24T10:28:32;17.25;;;4.50;;
32637;SDS011;19045;52.268;10.506;2023-05-24T10:31:02;18.02;;;4.78;;
32637;SDS011;19045;52.268;10.506;2023-05-24T10:33:36;19.58;;;4.53;;
32637;SDS011;19045;52.268;10.506;2023-05-24T10:36:05;21.05;;;5.05;;
32637;SDS011;19045;52.268;10.506;2023-05-24T10:38:36;17.70;;;4.82;;
32637;SDS011;19045;52.268;10.506;2023-05-24T10:41:04;20.67;;;5.22;;
32637;SDS011;19045;52.268;10.506;2023-05-24T10:43:32;22.10;;;4.80;;
32637;SDS011;19045;52.268;10.506;2023-05-24T10:45:59;23.13;;;5.47;;
32637;SDS011;19045;52.268;10.506;2023-05-24T10:48:30;19.67;;;4.75;;
32637;SDS011;19045;52.268;10.506;2023-05-24T10:54:17;18.70;;;5.03;;
32637;SDS011;19045;52.268;10.506;2023-05-24T10:56:46;23.02;;;5.38;;
32637;SDS011;19045;52.268;10.506;2023-05-24T10:59:23;21.20;;;5.78;;
32637;SDS011;19045;52.268;10.506;2023-05-24T11:01:55;21.27;;;5.25;;
32637;SDS011;19045;52.268;10.506;2023-05-24T11:04:23;16.60;;;5.82;;
32637;SDS011;19045;52.268;10.506;2023-05-24T11:06:54;20.88;;;6.45;;
32637;SDS011;19045;52.268;10.506;2023-05-24T11:09:22;25.00;;;6.20;;
32637;SDS011;19045;52.268;10.506;2023-05-24T11:11:53;25.23;;;7.28;;
32637;SDS011;19045;52.268;10.506;2023-05-24T11:14:21;15.35;;;4.82;;
32637;SDS011;19045;52.268;10.506;2023-05-24T11:16:49;26.30;;;6.53;;
32637;SDS011;19045;52.268;10.506;2023-05-24T11:19:17;19.95;;;5.97;;
32637;SDS011;19045;52.268;10.506;2023-05-24T11:21:45;16.27;;;5.60;;
32637;SDS011;19045;52.268;10.506;2023-05-24T11:24:15;21.42;;;6.75;;
32637;SDS011;19045;52.268;10.506;2023-05-24T11:26:43;18.23;;;6.10;;
32637;SDS011;19045;52.268;10.506;2023-05-24T11:29:11;24.27;;;6.47;;
32637;SDS011;19045;52.268;10.506;2023-05-24T11:31:45;20.52;;;6.03;;
32637;SDS011;19045;52.268;10.506;2023-05-24T11:34:12;23.00;;;6.68;;
32637;SDS011;19045;52.268;10.506;2023-05-24T11:36:41;24.40;;;6.72;;
32637;SDS011;19045;52.268;10.506;2023-05-24T11:39:08;21.70;;;5.93;;
32637;SDS011;19045;52.268;10.506;2023-05-24T11:41:36;19.65;;;6.20;;
32637;SDS011;19045;52.268;10.506;2023-05-24T11:44:04;22.13;;;5.32;;
32637;SDS011;19045;52.268;10.506;2023-05-24T11:46:32;21.58;;;6.53;;
32637;SDS011;19045;52.268;10.506;2023-05-24T11:48:59;21.63;;;5.80;;
32637;SDS011;19045;52.268;10.506;2023-05-24T11:51:26;15.95;;;5.90;;
32637;SDS011;19045;52.268;10.506;2023-05-24T11:53:54;19.30;;;6.18;;
32637;SDS011;19045;52.268;10.506;2023-05-24T11:56:21;19.42;;;6.20;;
32637;SDS011;19045;52.268;10.506;2023-05-24T11:58:49;33.50;;;7.55;;
32637;SDS011;19045;52.268;10.506;2023-05-24T12:01:24;19.35;;;6.93;;
32637;SDS011;19045;52.268;10.506;2023-05-24T12:03:51;30.92;;;7.70;;
32637;SDS011;19045;52.268;10.506;2023-05-24T12:06:18;23.02;;;6.47;;
32637;SDS011;19045;52.268;10.506;2023-05-24T12:08:46;28.42;;;7.60;;
32637;SDS011;19045;52.268;10.506;2023-05-24T12:11:13;27.05;;;7.18;;
32637;SDS011;19045;52.268;10.506;2023-05-24T12:13:41;24.75;;;7.00;;
32637;SDS011;19045;52.268;10.506;2023-05-24T12:16:10;17.83;;;6.25;;
32637;SDS011;19045;52.268;10.506;2023-05-24T12:18:38;26.27;;;6.07;;
32637;SDS011;19045;52.268;10.506;2023-05-24T12:21:07;21.65;;;5.82;;
32637;SDS011;19045;52.268;10.506;2023-05-24T12:23:35;21.90;;;5.63;;
32637;SDS011;19045;52.268;10.506;2023-05-24T12:26:03;18.80;;;4.68;;
32637;SDS011;19045;52.268;10.506;2023-05-24T12:28:34;22.65;;;5.63;;
32637;SDS011;19045;52.268;10.506;2023-05-24T12:31:02;12.98;;;4.50;;
32637;SDS011;19045;52.268;10.506;2023-05-24T12:33:31;14.32;;;4.35;;
32637;SDS011;19045;52.268;10.506;2023-05-24T12:35:58;17.98;;;4.90;;
32637;SDS011;19045;52.268;10.506;2023-05-24T12:38:26;14.75;;;3.95;;
32637;SDS011;19045;52.268;10.506;2023-05-24T12:40:59;17.25;;;4.85;;
32637;SDS011;19045;52.268;10.506;2023-05-24T12:43:25;13.07;;;4.97;;
32637;SDS011;19045;52.268;10.506;2023-05-24T12:45:52;16.50;;;4.55;;
32637;SDS011;19045;52.268;10.506;2023-05-24T12:48:19;19.38;;;5.03;;
32637;SDS011;19045;52.268;10.506;2023-05-24T12:50:48;17.40;;;5.07;;
32637;SDS011;19045;52.268;10.506;2023-05-24T12:53:15;19.92;;;5.15;;
32637;SDS011;19045;52.268;10.506;2023-05-24T12:55:44;22.23;;;5.10;;
32637;SDS011;19045;52.268;10.506;2023-05-24T12:58:10;19.23;;;5.95;;
32637;SDS011;19045;52.268;10.506;2023-05-24T13:00:40;20.38;;;6.65;;
32637;SDS011;19045;52.268;10.506;2023-05-24T13:03:08;18.30;;;6.35;;
32637;SDS011;19045;52.268;10.506;2023-05-24T13:05:35;17.88;;;5.20;;
32637;SDS011;19045;52.268;10.506;2023-05-24T13:08:03;17.60;;;5.22;;
32637;SDS011;19045;52.268;10.506;2023-05-24T13:10:30;14.55;;;5.20;;
32637;SDS011;19045;52.268;10.506;2023-05-24T13:12:57;15.35;;;5.70;;
32637;SDS011;19045;52.268;10.506;2023-05-24T13:15:24;15.80;;;6.53;;
32637;SDS011;19045;52.268;10.506;2023-05-24T13:17:51;19.00;;;5.38;;
32637;SDS011;19045;52.268;10.506;2023-05-24T13:20:20;15.85;;;5.57;;
32637;SDS011;19045;52.268;10.506;2023-05-24T13:22:48;14.65;;;5.25;;
32637;SDS011;19045;52.268;10.506;2023-05-24T13:25:16;14.35;;;5.63;;
32637;SDS011;19045;52.268;10.506;2023-05-24T13:27:43;19.55;;;6.18;;
32637;SDS011;19045;52.268;10.506;2023-05-24T13:30:12;17.17;;;5.75;;
32637;SDS011;19045;52.268;10.506;2023-05-24T13:32:41;14.48;;;6.22;;
32637;SDS011;19045;52.268;10.506;2023-05-24T13:35:10;15.05;;;5.78;;
32637;SDS011;19045;52.268;10.506;2023-05-24T13:37:36;19.85;;;6.93;;
32637;SDS011;19045;52.268;10.506;2023-05-24T13:40:03;16.05;;;6.25;;
32637;SDS011;19045;52.268;10.506;2023-05-24T13:42:32;22.92;;;7.10;;
32637;SDS011;19045;52.268;10.506;2023-05-24T13:44:59;15.77;;;6.60;;
32637;SDS011;19045;52.268;10.506;2023-05-24T13:47:27;25.42;;;6.65;;
32637;SDS011;19045;52.268;10.506;2023-05-24T13:49:54;19.02;;;5.88;;
32637;SDS011;19045;52.268;10.506;2023-05-24T13:52:21;16.23;;;5.07;;
32637;SDS011;19045;52.268;10.506;2023-05-24T13:54:51;13.70;;;5.60;;
32637;SDS011;19045;52.268;10.506;2023-05-24T13:57:18;20.05;;;7.63;;
32637;SDS011;19045;52.268;10.506;2023-05-24T13:59:46;20.42;;;7.97;;
32637;SDS011;19045;52.268;10.506;2023-05-24T14:02:12;18.05;;;7.63;;
32637;SDS011;19045;52.268;10.506;2023-05-24T14:04:40;14.63;;;7.03;;
32637;SDS011;19045;52.268;10.506;2023-05-24T14:07:07;16.42;;;6.00;;
32637;SDS011;19045;52.268;10.506;2023-05-24T14:09:33;17.00;;;6.47;;
32637;SDS011;19045;52.268;10.506;2023-05-24T14:12:01;19.92;;;7.13;;
32637;SDS011;19045;52.268;10.506;2023-05-24T14:14:28;17.73;;;7.30;;
32637;SDS011;19045;52.268;10.506;2023-05-24T14:16:56;17.45;;;6.57;;
32637;SDS011;19045;52.268;10.506;2023-05-24T14:19:23;14.63;;;6.15;;
32637;SDS011;19045;52.268;10.506;2023-05-24T14:21:49;18.48;;;6.75;;
32637;SDS011;19045;52.268;10.506;2023-05-24T14:24:16;17.50;;;7.10;;
32637;SDS011;19045;52.268;10.506;2023-05-24T14:26:42;18.90;;;7.20;;
32637;SDS011;19045;52.268;10.506;2023-05-24T14:29:11;22.38;;;7.30;;
32637;SDS011;19045;52.268;10.506;2023-05-24T14:31:38;18.55;;;8.15;;
32637;SDS011;19045;52.268;10.506;2023-05-24T14:34:08;20.67;;;7.07;;
32637;SDS011;19045;52.268;10.506;2023-05-24T14:36:36;20.52;;;6.80;;
32637;SDS011;19045;52.268;10.506;2023-05-24T14:39:04;22.27;;;6.90;;
32637;SDS011;19045;52.268;10.506;2023-05-24T14:41:31;19.20;;;6.25;;